Time;durP1;ratioP1;P1;durP2;ratioP2;P2;SDS_P1;SDS_P2;PMS_P1;PMS_P2;Temp;Humidity;BMP_temperature;BMP_pressure;BME280_temperature;BME280_humidity;BME280_pressure;Samples;Min_cycle;Max_cycle;Signal;HPM_P1;HPM_P2
2023/03/02 00:00:15;;;;;;;13.90;4.10;;;;;;;;;;1033355;28;20034;-29
2023/03/02 00:00:46;;;;;;;10.75;4.90;;;;;;;;;;1032936;28;20029;-29
2023/03/02 00:01:17;;;;;;;7.22;2.83;;;;;;;;;;1032869;28;20018;-27
2023/03/02 00:01:50;;;;;;;11.70;3.80;;;;;;;;;;1033094;28;20037;-29
2023/03/02 00:02:24;;;;;;;10.80;5.13;;;;;;;;;;1033654;28;20104;-29
2023/03/02 00:02:54;;;;;;;12.75;6.15;;;;;;;;;;1033477;28;20079;-29
2023/03/02 00:03:25;;;;;;;8.00;4.68;;;;;;;;;;1033413;28;20056;-29
2023/03/02 00:03:57;;;;;;;15.82;6.03;;;;;;;;;;1033537;28;20096;-29
2023/03/02 00:04:32;;;;;;;6.53;4.55;;;;;;;;;;1033396;28;20506;-29
2023/03/02 00:05:02;;;;;;;7.72;3.20;;;;;;;;;;1033452;28;20022;-29
2023/03/02 00:05:33;;;;;;;8.98;3.65;;;;;;;;;;1033379;28;20026;-28
2023/03/02 00:06:04;;;;;;;13.35;5.32;;;;;;;;;;1033251;28;20060;-29
2023/03/02 00:06:35;;;;;;;6.72;3.33;;;;;;;;;;1033759;28;20038;-29
2023/03/02 00:07:07;;;;;;;9.55;3.75;;;;;;;;;;1033507;28;20076;-29
2023/03/02 00:07:38;;;;;;;6.97;4.63;;;;;;;;;;1033312;28;20030;-29
2023/03/02 00:08:09;;;;;;;11.95;3.15;;;;;;;;;;1034448;28;20013;-29
2023/03/02 00:08:40;;;;;;;5.22;2.88;;;;;;;;;;1033313;28;20025;-29
2023/03/02 00:09:10;;;;;;;14.30;4.18;;;;;;;;;;1033499;28;20469;-29
2023/03/02 00:09:41;;;;;;;9.38;5.43;;;;;;;;;;1033401;28;20066;-29
2023/03/02 00:10:12;;;;;;;7.78;3.95;;;;;;;;;;1033592;28;20030;-29
2023/03/02 00:10:43;;;;;;;7.20;3.88;;;;;;;;;;1033395;28;20018;-28
2023/03/02 00:11:14;;;;;;;11.10;3.28;;;;;;;;;;1033430;28;20030;-28
2023/03/02 00:11:44;;;;;;;8.20;4.85;;;;;;;;;;1032190;28;20026;-28
2023/03/02 00:12:15;;;;;;;7.82;5.57;;;;;;;;;;1033525;28;20018;-28
2023/03/02 00:12:46;;;;;;;5.63;2.40;;;;;;;;;;1034141;28;20046;-29
2023/03/02 00:13:16;;;;;;;9.55;3.90;;;;;;;;;;1033344;28;20030;-29
2023/03/02 00:13:47;;;;;;;8.43;5.97;;;;;;;;;;1033447;28;20388;-29
2023/03/02 00:14:17;;;;;;;8.90;3.97;;;;;;;;;;1033370;28;20022;-28
2023/03/02 00:14:48;;;;;;;11.13;2.95;;;;;;;;;;1033450;28;20026;-29
2023/03/02 00:15:18;;;;;;;5.32;2.40;;;;;;;;;;1033362;28;20030;-29
2023/03/02 00:15:49;;;;;;;10.18;4.13;;;;;;;;;;1033445;28;20052;-29
2023/03/02 00:16:19;;;;;;;7.72;3.33;;;;;;;;;;1033176;28;20049;-28
2023/03/02 00:16:50;;;;;;;6.93;2.83;;;;;;;;;;1033453;28;20068;-29
2023/03/02 00:17:26;;;;;;;9.35;2.95;;;;;;;;;;1033431;28;20026;-29
2023/03/02 00:17:57;;;;;;;7.25;2.47;;;;;;;;;;1033470;28;20088;-29
2023/03/02 00:18:27;;;;;;;10.10;4.20;;;;;;;;;;1033540;28;20113;-29
2023/03/02 00:18:58;;;;;;;7.22;2.85;;;;;;;;;;1034153;28;20037;-28
2023/03/02 00:19:29;;;;;;;18.38;4.68;;;;;;;;;;1034133;28;20112;-29
2023/03/02 00:20:11;;;;;;;19.60;6.32;;;;;;;;;;1034320;28;20124;-28
2023/03/02 00:20:41;;;;;;;5.03;3.80;;;;;;;;;;1034107;28;20480;-28
2023/03/02 00:21:12;;;;;;;13.18;4.50;;;;;;;;;;1033448;28;20032;-29
2023/03/02 00:21:42;;;;;;;24.80;4.32;;;;;;;;;;1034099;28;20565;-29
2023/03/02 00:22:13;;;;;;;5.10;3.28;;;;;;;;;;1034383;28;20049;-29
2023/03/02 00:22:44;;;;;;;14.65;3.97;;;;;;;;;;1034144;28;20474;-29
2023/03/02 00:23:15;;;;;;;8.70;4.05;;;;;;;;;;1034175;28;20029;-28
2023/03/02 00:23:45;;;;;;;17.30;3.17;;;;;;;;;;1034084;28;20500;-29
2023/03/02 00:24:16;;;;;;;3.13;2.10;;;;;;;;;;1034153;28;20022;-29
2023/03/02 00:24:46;;;;;;;8.57;4.80;;;;;;;;;;1034191;28;20030;-29
2023/03/02 00:25:17;;;;;;;5.68;2.92;;;;;;;;;;1034245;28;20072;-29
2023/03/02 00:25:47;;;;;;;8.40;3.35;;;;;;;;;;1034124;28;20033;-29
2023/03/02 00:26:18;;;;;;;6.43;3.72;;;;;;;;;;1034116;28;20081;-29
2023/03/02 00:26:49;;;;;;;6.78;4.45;;;;;;;;;;1034257;28;20469;-29
2023/03/02 00:27:21;;;;;;;6.45;4.15;;;;;;;;;;1034820;28;20025;-29
2023/03/02 00:27:51;;;;;;;7.07;3.13;;;;;;;;;;1035079;28;20120;-29
2023/03/02 00:28:22;;;;;;;7.35;3.45;;;;;;;;;;1034090;28;20034;-29
2023/03/02 00:28:52;;;;;;;4.97;3.55;;;;;;;;;;1034254;28;20026;-28
2023/03/02 00:29:23;;;;;;;7.93;4.82;;;;;;;;;;1033994;28;20029;-29
2023/03/02 00:29:53;;;;;;;8.55;5.53;;;;;;;;;;1034155;28;20564;-29
2023/03/02 00:30:24;;;;;;;11.23;5.70;;;;;;;;;;1034251;28;20029;-28
2023/03/02 00:30:55;;;;;;;9.93;4.70;;;;;;;;;;1034191;28;20061;-28
2023/03/02 00:31:25;;;;;;;11.60;5.10;;;;;;;;;;1034200;28;20014;-29
2023/03/02 00:31:56;;;;;;;8.43;4.88;;;;;;;;;;1034177;28;20050;-29
2023/03/02 00:32:26;;;;;;;10.98;4.63;;;;;;;;;;1034244;28;20117;-29
2023/03/02 00:32:57;;;;;;;7.55;4.90;;;;;;;;;;1034075;28;20030;-29
2023/03/02 00:33:27;;;;;;;6.60;3.83;;;;;;;;;;1034190;28;20144;-29
2023/03/02 00:33:58;;;;;;;7.93;5.95;;;;;;;;;;1034290;28;20088;-29
2023/03/02 00:34:31;;;;;;;9.07;6.88;;;;;;;;;;1033425;28;20053;-29
2023/03/02 00:35:02;;;;;;;19.73;6.57;;;;;;;;;;1033875;28;20029;-28
2023/03/02 00:35:36;;;;;;;13.95;4.53;;;;;;;;;;1034135;28;20046;-29
2023/03/02 00:36:16;;;;;;;10.55;4.72;;;;;;;;;;1033847;28;20604;-29
2023/03/02 00:36:48;;;;;;;4.82;3.50;;;;;;;;;;1033749;28;20029;-29
2023/03/02 00:37:18;;;;;;;11.38;5.70;;;;;;;;;;1034040;28;20451;-29
2023/03/02 00:37:49;;;;;;;7.97;5.07;;;;;;;;;;1034153;28;20032;-29
2023/03/02 00:38:19;;;;;;;14.57;6.30;;;;;;;;;;1034121;28;20192;-29
2023/03/02 00:38:53;;;;;;;20.45;4.53;;;;;;;;;;1034092;28;20026;-29
2023/03/02 00:39:23;;;;;;;14.73;5.55;;;;;;;;;;1034058;28;20468;-29
2023/03/02 00:39:54;;;;;;;12.25;5.00;;;;;;;;;;1033996;28;20116;-29
2023/03/02 00:40:24;;;;;;;24.92;7.95;;;;;;;;;;1034281;28;20030;-29
2023/03/02 00:40:55;;;;;;;18.85;5.38;;;;;;;;;;1033782;28;20514;-29
2023/03/02 00:41:26;;;;;;;14.98;7.50;;;;;;;;;;1033994;28;20026;-29
2023/03/02 00:41:56;;;;;;;7.03;4.72;;;;;;;;;;1034286;28;20026;-29
2023/03/02 00:42:27;;;;;;;9.70;4.88;;;;;;;;;;1034281;28;20026;-29
2023/03/02 00:42:57;;;;;;;13.30;3.83;;;;;;;;;;1033423;28;20520;-29
2023/03/02 00:43:28;;;;;;;24.15;6.80;;;;;;;;;;1034203;28;20033;-29
2023/03/02 00:43:58;;;;;;;16.85;4.25;;;;;;;;;;1033937;28;20030;-29
2023/03/02 00:44:29;;;;;;;11.05;4.57;;;;;;;;;;1034171;28;20092;-29
2023/03/02 00:45:00;;;;;;;4.88;3.47;;;;;;;;;;1034150;28;20124;-29
2023/03/02 00:45:30;;;;;;;14.70;3.80;;;;;;;;;;1034051;28;20029;-29
2023/03/02 00:46:07;;;;;;;11.50;4.75;;;;;;;;;;1034110;28;20033;-28
2023/03/02 00:46:38;;;;;;;7.07;4.10;;;;;;;;;;1033440;28;20136;-28
2023/03/02 00:47:08;;;;;;;6.15;3.28;;;;;;;;;;1034223;28;20469;-28
2023/03/02 00:47:39;;;;;;;18.75;3.78;;;;;;;;;;1032519;28;20029;-29
2023/03/02 00:48:09;;;;;;;9.57;4.80;;;;;;;;;;1034364;28;20032;-28
2023/03/02 00:48:40;;;;;;;11.80;3.80;;;;;;;;;;1033860;28;20026;-28
2023/03/02 00:49:11;;;;;;;7.70;2.85;;;;;;;;;;1034183;28;20048;-29
2023/03/02 00:49:47;;;;;;;9.27;3.65;;;;;;;;;;1033611;28;20022;-28
2023/03/02 00:50:18;;;;;;;7.13;4.68;;;;;;;;;;1034036;28;20026;-28
2023/03/02 00:50:48;;;;;;;6.10;3.22;;;;;;;;;;1034651;28;20069;-28
2023/03/02 00:51:19;;;;;;;7.10;4.43;;;;;;;;;;1033816;28;20022;-29
2023/03/02 00:51:50;;;;;;;10.85;5.25;;;;;;;;;;1033965;28;20026;-29
2023/03/02 00:52:20;;;;;;;7.28;4.78;;;;;;;;;;1033931;28;20030;-28
2023/03/02 00:52:51;;;;;;;12.07;5.63;;;;;;;;;;1034479;28;20061;-29
2023/03/02 00:53:21;;;;;;;19.73;6.35;;;;;;;;;;1034078;28;20037;-29
2023/03/02 00:53:52;;;;;;;15.23;7.50;;;;;;;;;;1033669;28;20019;-29
2023/03/02 00:54:22;;;;;;;13.02;6.07;;;;;;;;;;1034905;28;20036;-28
2023/03/02 00:54:53;;;;;;;19.10;7.25;;;;;;;;;;1033649;28;20496;-28
2023/03/02 00:55:23;;;;;;;13.55;8.30;;;;;;;;;;1033782;28;20063;-29
2023/03/02 00:55:54;;;;;;;15.95;6.28;;;;;;;;;;1033741;28;20023;-29
2023/03/02 00:56:25;;;;;;;18.25;6.50;;;;;;;;;;1034191;28;20029;-28
2023/03/02 00:56:55;;;;;;;21.38;7.60;;;;;;;;;;1033728;28;20037;-29
2023/03/02 00:57:26;;;;;;;105.80;31.77;;;;;;;;;;1033780;28;20567;-29
2023/03/02 00:57:56;;;;;;;152.63;54.25;;;;;;;;;;1033616;28;20022;-28
2023/03/02 00:58:27;;;;;;;108.45;47.60;;;;;;;;;;1034030;28;20088;-28
2023/03/02 00:58:57;;;;;;;185.13;76.38;;;;;;;;;;1032676;28;20040;-28
2023/03/02 00:59:28;;;;;;;122.38;50.03;;;;;;;;;;1033750;28;20026;-29
2023/03/02 00:59:58;;;;;;;20.90;7.68;;;;;;;;;;1034087;28;20026;-28
2023/03/02 01:00:29;;;;;;;14.65;6.80;;;;;;;;;;1033868;28;20092;-28
2023/03/02 01:01:04;;;;;;;26.17;9.07;;;;;;;;;;1033843;28;20585;-28
2023/03/02 01:01:35;;;;;;;11.80;6.82;;;;;;;;;;1034266;28;20026;-28
2023/03/02 01:02:06;;;;;;;15.32;9.07;;;;;;;;;;1034014;28;20546;-28
2023/03/02 01:02:42;;;;;;;28.92;9.38;;;;;;;;;;1033852;28;20081;-27
2023/03/02 01:03:13;;;;;;;17.80;9.00;;;;;;;;;;1033089;28;20105;-28
2023/03/02 01:03:43;;;;;;;11.85;5.50;;;;;;;;;;1033600;28;20018;-28
2023/03/02 01:04:14;;;;;;;14.95;7.65;;;;;;;;;;1033902;28;20022;-28
2023/03/02 01:04:45;;;;;;;15.13;6.53;;;;;;;;;;1033481;28;20701;-29
2023/03/02 01:05:16;;;;;;;9.93;5.70;;;;;;;;;;1033932;28;20405;-28
2023/03/02 01:05:46;;;;;;;15.75;7.13;;;;;;;;;;1033783;28;20022;-28
2023/03/02 01:06:17;;;;;;;18.02;8.20;;;;;;;;;;1033544;28;20030;-29
2023/03/02 01:06:48;;;;;;;16.40;7.18;;;;;;;;;;1033546;28;20033;-28
2023/03/02 01:07:21;;;;;;;24.38;7.15;;;;;;;;;;1033869;28;20050;-28
2023/03/02 01:07:51;;;;;;;13.15;7.43;;;;;;;;;;1032884;28;20025;-28
2023/03/02 01:08:23;;;;;;;16.38;5.95;;;;;;;;;;1033896;28;20393;-28
2023/03/02 01:08:54;;;;;;;19.05;7.68;;;;;;;;;;1033784;28;20064;-29
2023/03/02 01:09:25;;;;;;;15.20;5.05;;;;;;;;;;1033650;28;20022;-29
2023/03/02 01:09:55;;;;;;;11.98;6.05;;;;;;;;;;1033492;28;20041;-27
2023/03/02 01:10:26;;;;;;;23.25;7.93;;;;;;;;;;1033917;28;20026;-28
2023/03/02 01:11:00;;;;;;;15.70;6.68;;;;;;;;;;1033672;28;20029;-28
2023/03/02 01:11:30;;;;;;;9.75;4.70;;;;;;;;;;1034378;28;20034;-28
2023/03/02 01:12:01;;;;;;;16.40;6.20;;;;;;;;;;1033598;28;20109;-29
2023/03/02 01:12:32;;;;;;;6.93;4.45;;;;;;;;;;1033767;28;20080;-28
2023/03/02 01:13:04;;;;;;;11.50;6.32;;;;;;;;;;1033906;28;20081;-28
2023/03/02 01:13:35;;;;;;;13.00;6.25;;;;;;;;;;1033146;28;20034;-28
2023/03/02 01:14:05;;;;;;;13.18;7.80;;;;;;;;;;1033602;28;20026;-28
2023/03/02 01:14:37;;;;;;;18.73;6.28;;;;;;;;;;1033710;28;20025;-28
2023/03/02 01:15:08;;;;;;;14.65;6.72;;;;;;;;;;1033822;28;20025;-28
2023/03/02 01:15:39;;;;;;;21.02;7.97;;;;;;;;;;1033489;28;20045;-28
2023/03/02 01:16:10;;;;;;;22.25;7.30;;;;;;;;;;1033868;28;20029;-28
2023/03/02 01:16:41;;;;;;;11.93;6.53;;;;;;;;;;1033274;28;20318;-27
2023/03/02 01:17:11;;;;;;;21.20;9.65;;;;;;;;;;1035119;28;20022;-28
2023/03/02 01:17:42;;;;;;;23.75;9.75;;;;;;;;;;1033572;28;20172;-28
2023/03/02 01:18:13;;;;;;;17.63;7.88;;;;;;;;;;1033552;28;20021;-28
2023/03/02 01:18:44;;;;;;;11.45;6.68;;;;;;;;;;1034315;28;20529;-28
2023/03/02 01:19:15;;;;;;;22.10;8.80;;;;;;;;;;1033457;28;20133;-28
2023/03/02 01:19:45;;;;;;;10.65;6.43;;;;;;;;;;1034135;28;20486;-28
2023/03/02 01:20:16;;;;;;;12.43;6.43;;;;;;;;;;1033404;28;20517;-28
2023/03/02 01:20:46;;;;;;;14.43;7.30;;;;;;;;;;1033203;28;20033;-29
2023/03/02 01:21:17;;;;;;;12.38;6.68;;;;;;;;;;1031799;28;20124;-27
2023/03/02 01:21:47;;;;;;;31.23;7.32;;;;;;;;;;1029960;28;20022;-29
2023/03/02 01:22:18;;;;;;;14.55;5.93;;;;;;;;;;1032652;28;20121;-29
2023/03/02 01:22:49;;;;;;;9.70;4.93;;;;;;;;;;1027077;28;20031;-29
2023/03/02 01:23:20;;;;;;;14.85;5.75;;;;;;;;;;1029097;28;20137;-28
2023/03/02 01:23:50;;;;;;;11.13;6.22;;;;;;;;;;1030467;28;20022;-29
2023/03/02 01:24:21;;;;;;;10.85;7.20;;;;;;;;;;1030381;28;20030;-29
2023/03/02 01:24:52;;;;;;;18.80;7.18;;;;;;;;;;1033738;28;20981;-29
2023/03/02 01:25:22;;;;;;;24.15;8.65;;;;;;;;;;1033126;28;20026;-28
2023/03/02 01:25:53;;;;;;;12.90;6.85;;;;;;;;;;1032574;28;20457;-29
2023/03/02 01:26:23;;;;;;;16.98;8.00;;;;;;;;;;1031509;28;20128;-28
2023/03/02 01:26:54;;;;;;;21.83;8.30;;;;;;;;;;1030149;28;20031;-29
2023/03/02 01:27:24;;;;;;;17.33;7.32;;;;;;;;;;1031481;28;20505;-29
2023/03/02 01:27:55;;;;;;;17.90;9.38;;;;;;;;;;1031008;28;20026;-29
2023/03/02 01:28:26;;;;;;;23.75;7.22;;;;;;;;;;1033151;28;20025;-29
2023/03/02 01:28:57;;;;;;;26.55;9.32;;;;;;;;;;1033519;28;20397;-29
2023/03/02 01:29:27;;;;;;;27.25;10.75;;;;;;;;;;1033361;28;20052;-29
2023/03/02 01:29:58;;;;;;;40.33;10.98;;;;;;;;;;1033042;28;20018;-29
2023/03/02 01:30:28;;;;;;;26.60;9.52;;;;;;;;;;1033032;28;20025;-29
2023/03/02 01:31:01;;;;;;;20.80;10.20;;;;;;;;;;1033862;28;20515;-28
2023/03/02 01:31:31;;;;;;;41.53;10.85;;;;;;;;;;1033498;28;20033;-29
2023/03/02 01:32:02;;;;;;;32.45;13.13;;;;;;;;;;1032526;28;20100;-29
2023/03/02 01:32:33;;;;;;;25.33;13.48;;;;;;;;;;1032154;28;20107;-28
2023/03/02 01:33:04;;;;;;;16.17;10.23;;;;;;;;;;1033854;28;20049;-29
2023/03/02 01:33:34;;;;;;;24.70;11.80;;;;;;;;;;1032479;28;20089;-28
2023/03/02 01:34:05;;;;;;;34.20;13.95;;;;;;;;;;1031982;28;20045;-29
2023/03/02 01:34:35;;;;;;;28.58;11.05;;;;;;;;;;1032174;28;20030;-29
2023/03/02 01:35:06;;;;;;;14.90;9.98;;;;;;;;;;1034645;28;20021;-28
2023/03/02 01:35:36;;;;;;;22.10;9.20;;;;;;;;;;1033225;28;20025;-27
2023/03/02 01:36:07;;;;;;;26.67;10.85;;;;;;;;;;1036700;28;20033;-29
2023/03/02 01:36:38;;;;;;;26.65;8.52;;;;;;;;;;1036610;28;20025;-28
2023/03/02 01:37:08;;;;;;;18.80;7.03;;;;;;;;;;1036798;28;20489;-29
2023/03/02 01:37:39;;;;;;;23.38;10.43;;;;;;;;;;1036284;28;20091;-29
2023/03/02 01:38:09;;;;;;;24.25;9.25;;;;;;;;;;1033708;28;21588;-28
2023/03/02 01:38:40;;;;;;;16.98;9.48;;;;;;;;;;1033198;28;20900;-28
2023/03/02 01:39:14;;;;;;;22.02;10.85;;;;;;;;;;1031731;28;20037;-28
2023/03/02 01:39:45;;;;;;;33.45;11.70;;;;;;;;;;1031561;28;20041;-28
2023/03/02 01:40:16;;;;;;;35.97;12.68;;;;;;;;;;1032792;28;20030;-29
2023/03/02 01:40:46;;;;;;;20.67;10.35;;;;;;;;;;1033494;28;20033;-28
2023/03/02 01:41:17;;;;;;;20.35;10.40;;;;;;;;;;1034157;28;20026;-28
2023/03/02 01:41:49;;;;;;;19.40;8.25;;;;;;;;;;1032828;28;20029;-29
2023/03/02 01:42:19;;;;;;;17.33;8.18;;;;;;;;;;1033769;28;20466;-29
2023/03/02 01:42:51;;;;;;;19.02;9.48;;;;;;;;;;1032379;28;20077;-28
2023/03/02 01:43:22;;;;;;;30.90;11.00;;;;;;;;;;1033622;28;20488;-28
2023/03/02 01:43:53;;;;;;;29.95;8.95;;;;;;;;;;1032958;28;20033;-29
2023/03/02 01:44:38;;;;;;;23.23;9.68;;;;;;;;;;1032761;28;20034;-29
2023/03/02 01:45:27;;;;;;;24.38;8.82;;;;;;;;;;1033501;28;20512;-29
2023/03/02 01:46:13;;;;;;;19.50;8.85;;;;;;;;;;1033205;28;20536;-27
2023/03/02 01:46:45;;;;;;;15.52;10.05;;;;;;;;;;1031025;28;20140;-28
2023/03/02 01:47:21;;;;;;;33.28;8.90;;;;;;;;;;1032604;28;20081;-29
2023/03/02 01:47:52;;;;;;;21.35;10.45;;;;;;;;;;1032567;28;20068;-28
2023/03/02 01:48:26;;;;;;;14.02;8.82;;;;;;;;;;1033780;28;20103;-29
2023/03/02 01:49:01;;;;;;;16.10;6.97;;;;;;;;;;1032332;28;20028;-28
2023/03/02 01:49:36;;;;;;;21.98;8.63;;;;;;;;;;1032920;28;20112;-29
2023/03/02 01:50:16;;;;;;;15.65;8.18;;;;;;;;;;1032604;28;20030;-29
2023/03/02 01:50:47;;;;;;;13.35;6.68;;;;;;;;;;1033493;28;20561;-28
2023/03/02 01:51:19;;;;;;;14.73;8.35;;;;;;;;;;1033601;28;20054;-29
2023/03/02 01:51:50;;;;;;;16.60;6.47;;;;;;;;;;1032866;28;20080;-28
2023/03/02 01:52:22;;;;;;;34.35;11.05;;;;;;;;;;1033324;28;20128;-28
2023/03/02 01:52:55;;;;;;;23.17;11.60;;;;;;;;;;1033250;28;20537;-28
2023/03/02 01:53:27;;;;;;;36.72;12.50;;;;;;;;;;1032888;28;20021;-28
2023/03/02 01:54:00;;;;;;;24.23;15.45;;;;;;;;;;1031864;28;20081;-29
2023/03/02 01:54:31;;;;;;;21.35;11.90;;;;;;;;;;1032493;28;20025;-29
2023/03/02 01:55:03;;;;;;;30.30;13.82;;;;;;;;;;1030964;28;20030;-27
2023/03/02 01:55:37;;;;;;;29.17;14.30;;;;;;;;;;1032608;28;20034;-27
2023/03/02 01:56:07;;;;;;;42.85;17.38;;;;;;;;;;1032668;28;20029;-28
2023/03/02 01:56:40;;;;;;;23.10;14.20;;;;;;;;;;1031293;28;20026;-28
2023/03/02 01:57:10;;;;;;;31.50;15.70;;;;;;;;;;1032814;28;21191;-28
2023/03/02 01:57:44;;;;;;;26.50;10.80;;;;;;;;;;1031788;28;20683;-28
2023/03/02 01:58:15;;;;;;;20.05;10.48;;;;;;;;;;1034112;28;20040;-28
2023/03/02 01:58:50;;;;;;;16.60;11.50;;;;;;;;;;1032959;28;20022;-29
2023/03/02 01:59:22;;;;;;;19.10;8.73;;;;;;;;;;1033372;28;20062;-29
2023/03/02 01:59:55;;;;;;;16.63;12.48;;;;;;;;;;1032983;28;20125;-29
2023/03/02 02:00:30;;;;;;;26.45;10.38;;;;;;;;;;1034564;28;20037;-28
2023/03/02 02:01:01;;;;;;;19.58;10.77;;;;;;;;;;1032860;28;20512;-28
2023/03/02 02:01:33;;;;;;;24.23;10.27;;;;;;;;;;1032389;28;20029;-27
2023/03/02 02:02:05;;;;;;;36.60;14.85;;;;;;;;;;1032997;28;20025;-28
2023/03/02 02:02:36;;;;;;;20.77;10.85;;;;;;;;;;1032189;28;20128;-29
2023/03/02 02:03:11;;;;;;;33.28;14.57;;;;;;;;;;1033068;28;20021;-27
2023/03/02 02:03:48;;;;;;;24.38;14.18;;;;;;;;;;1030647;28;20033;-27
2023/03/02 02:04:20;;;;;;;21.10;9.05;;;;;;;;;;1033322;28;20053;-28
2023/03/02 02:04:52;;;;;;;24.77;13.20;;;;;;;;;;1032296;28;20018;-29
2023/03/02 02:05:26;;;;;;;36.17;14.55;;;;;;;;;;1032864;28;20026;-29
2023/03/02 02:06:06;;;;;;;18.17;9.95;;;;;;;;;;1032196;28;20038;-28
2023/03/02 02:06:38;;;;;;;31.42;9.40;;;;;;;;;;1032791;28;20593;-29
2023/03/02 02:07:09;;;;;;;36.08;13.70;;;;;;;;;;1033582;28;20453;-29
2023/03/02 02:07:40;;;;;;;22.13;10.90;;;;;;;;;;1032241;28;20023;-29
2023/03/02 02:08:11;;;;;;;43.63;16.92;;;;;;;;;;1033324;28;20053;-29
2023/03/02 02:08:41;;;;;;;35.33;13.20;;;;;;;;;;1033272;28;20504;-28
2023/03/02 02:09:14;;;;;;;36.55;16.55;;;;;;;;;;1033325;28;20034;-29
2023/03/02 02:09:48;;;;;;;23.63;12.20;;;;;;;;;;1032281;28;20049;-27
2023/03/02 02:10:19;;;;;;;22.40;13.02;;;;;;;;;;1033117;28;20022;-29
2023/03/02 02:10:50;;;;;;;31.35;13.75;;;;;;;;;;1033284;28;20057;-29
2023/03/02 02:11:21;;;;;;;42.00;14.98;;;;;;;;;;1032709;28;20030;-29
2023/03/02 02:11:51;;;;;;;37.42;14.85;;;;;;;;;;1032958;28;20057;-29
2023/03/02 02:12:22;;;;;;;26.55;17.17;;;;;;;;;;1033270;28;20037;-29
2023/03/02 02:12:53;;;;;;;57.80;16.35;;;;;;;;;;1033116;28;20022;-29
2023/03/02 02:13:23;;;;;;;31.48;13.95;;;;;;;;;;1032913;28;20045;-28
2023/03/02 02:13:58;;;;;;;49.15;14.85;;;;;;;;;;1032389;28;20489;-29
2023/03/02 02:14:29;;;;;;;67.85;15.27;;;;;;;;;;1033224;28;20083;-28
2023/03/02 02:15:00;;;;;;;32.92;13.93;;;;;;;;;;1032637;28;20026;-29
2023/03/02 02:15:31;;;;;;;31.85;14.55;;;;;;;;;;1031644;28;20381;-28
2023/03/02 02:16:01;;;;;;;29.00;14.77;;;;;;;;;;1032408;28;20551;-28
2023/03/02 02:16:33;;;;;;;26.00;13.10;;;;;;;;;;1031952;28;20030;-29
2023/03/02 02:17:03;;;;;;;21.17;11.68;;;;;;;;;;1031528;28;20034;-27
2023/03/02 02:17:34;;;;;;;22.25;10.85;;;;;;;;;;1029011;28;20348;-30
2023/03/02 02:18:05;;;;;;;41.45;9.60;;;;;;;;;;1030975;28;20029;-29
2023/03/02 02:18:38;;;;;;;21.17;10.45;;;;;;;;;;1031476;28;20032;-29
2023/03/02 02:19:17;;;;;;;34.95;10.57;;;;;;;;;;1030142;28;20022;-29
2023/03/02 02:19:47;;;;;;;27.90;8.60;;;;;;;;;;1032572;28;20045;-28
2023/03/02 02:20:32;;;;;;;15.13;7.35;;;;;;;;;;1034031;28;20026;-29
2023/03/02 02:21:04;;;;;;;20.00;10.35;;;;;;;;;;1032233;28;20549;-29
2023/03/02 02:21:35;;;;;;;26.77;11.52;;;;;;;;;;1032193;28;20030;-29
2023/03/02 02:22:07;;;;;;;19.48;10.73;;;;;;;;;;1032058;28;20053;-29
2023/03/02 02:22:44;;;;;;;23.70;11.23;;;;;;;;;;1032496;28;20595;-27
2023/03/02 02:23:27;;;;;;;15.18;8.30;;;;;;;;;;1035399;28;20094;-29
2023/03/02 02:24:07;;;;;;;23.73;10.93;;;;;;;;;;1035342;28;20018;-28
2023/03/02 02:24:45;;;;;;;21.15;9.02;;;;;;;;;;1035316;28;20026;-28
2023/03/02 02:25:35;;;;;;;9.95;7.03;;;;;;;;;;1032264;28;20033;-29
2023/03/02 02:26:12;;;;;;;30.17;7.93;;;;;;;;;;1022462;28;20043;-29
2023/03/02 02:26:50;;;;;;;13.38;5.32;;;;;;;;;;1031831;28;20026;-29
2023/03/02 02:27:21;;;;;;;17.27;8.55;;;;;;;;;;1032915;28;20192;-29
2023/03/02 02:27:51;;;;;;;14.85;8.35;;;;;;;;;;1029311;28;20518;-28
2023/03/02 02:28:24;;;;;;;27.10;9.90;;;;;;;;;;1029661;28;20073;-29
2023/03/02 02:29:17;;;;;;;17.98;9.48;;;;;;;;;;1029000;28;20498;-30
2023/03/02 02:29:49;;;;;;;19.10;8.80;;;;;;;;;;1031626;28;20108;-29
2023/03/02 02:30:21;;;;;;;17.25;8.52;;;;;;;;;;1030565;28;20033;-29
2023/03/02 02:30:54;;;;;;;16.75;8.48;;;;;;;;;;1030792;28;20568;-29
2023/03/02 02:31:40;;;;;;;14.75;6.47;;;;;;;;;;1031349;28;20515;-29
2023/03/02 02:32:13;;;;;;;22.23;7.30;;;;;;;;;;1033231;28;20442;-29
2023/03/02 02:32:46;;;;;;;13.77;8.25;;;;;;;;;;1032089;28;20026;-29
2023/03/02 02:33:19;;;;;;;28.48;9.10;;;;;;;;;;1032326;28;20017;-28
2023/03/02 02:33:54;;;;;;;15.68;6.78;;;;;;;;;;1032866;28;20032;-29
2023/03/02 02:34:37;;;;;;;22.55;8.25;;;;;;;;;;1032849;28;20133;-29
2023/03/02 02:35:21;;;;;;;14.63;7.72;;;;;;;;;;1032587;28;20029;-29
2023/03/02 02:35:56;;;;;;;19.08;5.95;;;;;;;;;;1031404;28;20543;-29
2023/03/02 02:36:33;;;;;;;18.60;5.68;;;;;;;;;;1032029;28;20694;-30
2023/03/02 02:37:19;;;;;;;31.42;6.95;;;;;;;;;;1032724;28;20044;-29
2023/03/02 02:37:51;;;;;;;19.25;8.63;;;;;;;;;;1032700;28;20041;-29
2023/03/02 02:38:23;;;;;;;28.02;10.00;;;;;;;;;;1032640;28;20512;-29
2023/03/02 02:38:55;;;;;;;26.90;8.20;;;;;;;;;;1028012;28;20029;-30
2023/03/02 02:39:29;;;;;;;42.58;9.68;;;;;;;;;;1028515;28;20022;-29
2023/03/02 02:40:00;;;;;;;23.17;9.85;;;;;;;;;;1032438;28;20037;-29
2023/03/02 02:40:40;;;;;;;24.83;9.48;;;;;;;;;;1033048;28;20025;-29
2023/03/02 02:41:14;;;;;;;49.28;8.38;;;;;;;;;;1033606;28;20037;-29
2023/03/02 02:41:45;;;;;;;31.40;7.97;;;;;;;;;;1034085;28;20038;-29
2023/03/02 02:42:23;;;;;;;25.52;11.32;;;;;;;;;;1032890;28;20060;-29
2023/03/02 02:42:54;;;;;;;27.42;10.27;;;;;;;;;;1031665;28;20077;-29
2023/03/02 02:43:25;;;;;;;21.55;10.50;;;;;;;;;;1032656;28;20017;-28
2023/03/02 02:43:56;;;;;;;38.63;7.63;;;;;;;;;;1031388;28;20045;-29
2023/03/02 02:44:27;;;;;;;20.23;11.30;;;;;;;;;;1033364;28;20049;-30
2023/03/02 02:45:00;;;;;;;29.83;8.15;;;;;;;;;;1032477;28;20018;-29
2023/03/02 02:45:31;;;;;;;29.85;7.32;;;;;;;;;;1032812;28;20026;-29
2023/03/02 02:46:02;;;;;;;29.88;9.10;;;;;;;;;;1032638;28;20034;-29
2023/03/02 02:46:33;;;;;;;20.58;8.63;;;;;;;;;;1032309;28;20026;-29
2023/03/02 02:47:12;;;;;;;32.63;7.57;;;;;;;;;;1031870;28;20034;-29
2023/03/02 02:47:44;;;;;;;23.58;9.13;;;;;;;;;;1030657;28;20044;-29
2023/03/02 02:48:15;;;;;;;18.83;8.48;;;;;;;;;;1028783;28;20042;-29
2023/03/02 02:48:46;;;;;;;25.77;7.45;;;;;;;;;;1029089;28;20030;-30
2023/03/02 02:49:25;;;;;;;12.20;6.95;;;;;;;;;;1031290;28;20026;-30
2023/03/02 02:49:58;;;;;;;17.77;7.90;;;;;;;;;;1031908;28;20061;-30
2023/03/02 02:50:34;;;;;;;27.15;7.55;;;;;;;;;;1032022;28;20041;-29
2023/03/02 02:51:07;;;;;;;27.35;7.80;;;;;;;;;;1029449;28;20022;-30
2023/03/02 02:51:38;;;;;;;14.73;6.45;;;;;;;;;;1031376;28;20481;-30
2023/03/02 02:52:11;;;;;;;35.03;10.05;;;;;;;;;;1032101;28;20039;-30
2023/03/02 02:52:44;;;;;;;29.20;9.23;;;;;;;;;;1033303;28;20607;-29
2023/03/02 02:53:18;;;;;;;21.02;9.32;;;;;;;;;;1030130;28;20029;-29
2023/03/02 02:54:00;;;;;;;59.50;11.23;;;;;;;;;;1029908;28;20117;-30
2023/03/02 02:54:33;;;;;;;29.02;11.40;;;;;;;;;;1029133;28;20026;-30
2023/03/02 02:55:07;;;;;;;80.13;13.38;;;;;;;;;;1029579;28;20030;-29
2023/03/02 02:55:42;;;;;;;28.45;10.80;;;;;;;;;;1028546;28;20065;-29
2023/03/02 02:56:18;;;;;;;44.08;11.50;;;;;;;;;;1027283;28;20042;-30
2023/03/02 02:56:52;;;;;;;27.80;8.38;;;;;;;;;;1025959;28;20416;-30
2023/03/02 02:57:26;;;;;;;27.58;10.35;;;;;;;;;;1020105;28;20023;-30
2023/03/02 02:58:00;;;;;;;25.05;12.20;;;;;;;;;;1020772;28;20030;-30
2023/03/02 02:58:44;;;;;;;31.00;12.13;;;;;;;;;;1018581;28;20245;-30
2023/03/02 02:59:18;;;;;;;51.85;12.98;;;;;;;;;;1026831;28;20030;-29
2023/03/02 02:59:56;;;;;;;43.83;11.23;;;;;;;;;;1026012;28;20160;-29
2023/03/02 03:00:33;;;;;;;24.55;10.70;;;;;;;;;;1027612;28;20090;-30
2023/03/02 03:01:14;;;;;;;35.50;10.60;;;;;;;;;;1028480;28;20030;-29
2023/03/02 03:01:47;;;;;;;33.28;13.32;;;;;;;;;;1027056;28;20072;-30
2023/03/02 03:02:24;;;;;;;31.15;11.25;;;;;;;;;;1019949;28;20034;-28
2023/03/02 03:03:04;;;;;;;42.63;13.48;;;;;;;;;;1025122;28;20027;-28
2023/03/02 03:03:38;;;;;;;12.43;6.55;;;;;;;;;;1027692;28;20042;-30
2023/03/02 03:04:13;;;;;;;20.63;9.55;;;;;;;;;;1024200;28;20459;-29
2023/03/02 03:04:47;;;;;;;37.08;10.57;;;;;;;;;;1020014;29;20508;-29
2023/03/02 03:05:33;;;;;;;28.20;10.27;;;;;;;;;;1022291;28;20471;-31
2023/03/02 03:06:25;;;;;;;18.00;8.57;;;;;;;;;;1020775;28;20552;-31
2023/03/02 03:06:58;;;;;;;20.13;9.85;;;;;;;;;;1021255;28;20443;-31
2023/03/02 03:07:30;;;;;;;40.38;8.80;;;;;;;;;;1022735;28;20035;-31
2023/03/02 03:08:08;;;;;;;15.75;7.60;;;;;;;;;;1028720;28;20489;-31
2023/03/02 03:08:46;;;;;;;39.70;10.63;;;;;;;;;;1031534;28;20060;-30
2023/03/02 03:09:20;;;;;;;35.17;10.85;;;;;;;;;;1028773;28;20058;-31
2023/03/02 03:10:04;;;;;;;25.17;10.00;;;;;;;;;;1025294;28;20026;-31
2023/03/02 03:10:39;;;;;;;31.48;9.60;;;;;;;;;;1026382;28;20845;-31
2023/03/02 03:11:14;;;;;;;15.77;8.98;;;;;;;;;;1024865;28;20046;-31
2023/03/02 03:11:50;;;;;;;44.40;11.45;;;;;;;;;;1023416;28;20063;-31
2023/03/02 03:12:27;;;;;;;31.08;11.07;;;;;;;;;;1026214;28;20573;-30